OBBI/BAH METAR and TAF weather

Enter ICAO airport designator
Station Type Date Time Source
OBBI METAR 2019/08/18 09:00 UTC NOAA

OBBI 180900Z 35009KT 320V020 CAVOK 39/20 Q1001 NOSIG


Station Type Date Time Source
OBBI Decoded METAR 2019/08/18 09:00 UTC NOAA

Station name not available
Aug 18, 2019 - 05:00 AM EDT / 2019.08.18 0900 UTC
Wind: from the N (350 degrees) at 10 MPH (9 KT) (direction variable):0
Visibility: greater than 7 mile(s):0
Temperature: 102 F (39 C)
Heat index: 108.0 F (42.2 C):1
Dew Point: 68 F (20 C)
Relative Humidity: 33%
Pressure (altimeter): 29.56 in. Hg (1001 hPa)
ob: OBBI 180900Z 35009KT 320V020 CAVOK 39/20 Q1001 NOSIG
cycle: 9

Station Type Date Time Source
OBBI TAF 2019/08/18 06:34 UTC NOAA

TAF OBBI 180500Z 1806/1912 32010KT CAVOK
BECMG 1815/1817 VRB05KT
BECMG 1905/1907 35008KT

Example: see airport list